Time;durP1;ratioP1;P1;durP2;ratioP2;P2;SDS_P1;SDS_P2;PMS_P1;PMS_P2;Temp;Humidity;BMP_temperature;BMP_pressure;BME280_temperature;BME280_humidity;BME280_pressure;Samples;Min_cycle;Max_cycle;Signal;HPM_P1;HPM_P2
2022/01/20 00:02:16;;;;;;;52.25;21.02;;;;;;;0.76;100.00;98384.17;2026008;88;20973;-88
2022/01/20 00:05:38;;;;;;;49.83;22.50;;;;;;;0.78;100.00;98383.09;2011918;86;21143;-88
2022/01/20 00:28:17;;;;;;;31.62;16.57;;;;;;;0.95;100.00;98370.11;2026157;88;21068;-89
2022/01/20 00:37:45;;;;;;;33.80;17.67;;;;;;;0.97;100.00;98355.80;1986281;89;21085;-89
2022/01/20 00:40:45;;;;;;;34.88;19.75;;;;;;;0.99;100.00;98345.69;1986264;90;21077;-89
2022/01/20 00:43:46;;;;;;;32.33;16.95;;;;;;;1.03;100.00;98339.83;1986338;90;21161;-88
2022/01/20 00:46:47;;;;;;;33.00;18.07;;;;;;;1.05;100.00;98324.56;1986208;90;21043;-89
2022/01/20 00:49:48;;;;;;;34.43;18.48;;;;;;;1.09;100.00;98318.66;1986125;90;21038;-88
2022/01/20 00:52:49;;;;;;;31.52;16.75;;;;;;;1.11;100.00;98316.31;1994210;89;21066;-88
2022/01/20 00:55:50;;;;;;;34.78;18.02;;;;;;;1.12;100.00;98306.34;1987566;86;21032;-89
2022/01/20 00:58:50;;;;;;;33.02;17.80;;;;;;;1.14;100.00;98306.20;1990160;86;21070;-88
2022/01/20 01:01:51;;;;;;;33.78;19.07;;;;;;;1.17;100.00;98294.80;1987911;88;21502;-89
2022/01/20 01:04:52;;;;;;;30.68;18.90;;;;;;;1.20;100.00;98299.72;1986326;90;21015;-89
2022/01/20 01:07:55;;;;;;;32.73;17.55;;;;;;;1.24;100.00;98302.37;1986088;90;21078;-88
2022/01/20 01:10:55;;;;;;;28.10;17.37;;;;;;;1.24;100.00;98292.05;1986166;88;21083;-88
2022/01/20 01:13:58;;;;;;;33.85;18.12;;;;;;;1.23;100.00;98283.50;2004880;88;21468;-88
2022/01/20 01:20:10;;;;;;;25.70;16.12;;;;;;;1.24;100.00;98283.03;2009760;88;21520;-88
2022/01/20 01:23:02;;;;;;;31.75;17.67;;;;;;;1.25;100.00;98284.66;2011563;87;21556;-88
2022/01/20 01:26:02;;;;;;;30.35;18.40;;;;;;;1.26;100.00;98279.36;2009469;88;21100;-88
2022/01/20 01:29:14;;;;;;;27.85;16.93;;;;;;;1.30;100.00;98275.59;2025109;88;20970;-88
2022/01/20 01:32:08;;;;;;;33.83;17.82;;;;;;;1.29;100.00;98266.70;2024166;88;21568;-88
2022/01/20 01:35:10;;;;;;;28.47;16.65;;;;;;;1.28;100.00;98255.56;2025835;88;21656;-88
2022/01/20 01:41:13;;;;;;;31.97;18.07;;;;;;;1.29;100.00;98238.33;2026290;88;20982;-87
2022/01/20 01:44:21;;;;;;;28.05;16.65;;;;;;;1.25;100.00;98236.47;2015644;86;21057;-89
2022/01/20 01:47:16;;;;;;;29.85;17.12;;;;;;;1.31;100.00;98240.29;2009576;88;21076;-89
2022/01/20 01:50:17;;;;;;;24.18;15.68;;;;;;;1.32;100.00;98241.44;2009588;88;21025;-88
2022/01/20 01:53:18;;;;;;;23.70;16.20;;;;;;;1.33;100.00;98236.62;2009371;88;21068;-89
2022/01/20 01:56:19;;;;;;;23.65;15.68;;;;;;;1.34;100.00;98230.52;2009373;88;21100;-89
2022/01/20 01:59:19;;;;;;;28.15;17.00;;;;;;;1.34;100.00;98234.38;2009992;88;21100;-89
2022/01/20 02:02:20;;;;;;;26.90;14.18;;;;;;;1.35;100.00;98227.45;2009509;88;21076;-88
2022/01/20 02:05:22;;;;;;;31.05;16.05;;;;;;;1.35;100.00;98230.84;2009299;88;21092;-89
2022/01/20 02:21:36;;;;;;;30.10;17.65;;;;;;;1.40;100.00;98196.45;2025854;88;21465;-88
2022/01/20 02:24:37;;;;;;;24.45;15.75;;;;;;;1.42;100.00;98189.38;2025899;86;21084;-88
2022/01/20 02:27:37;;;;;;;25.80;15.60;;;;;;;1.41;100.00;98196.78;2025825;86;21628;-88
2022/01/20 02:30:38;;;;;;;27.37;17.05;;;;;;;1.40;100.00;98187.89;2025932;88;21061;-90
2022/01/20 02:33:39;;;;;;;24.98;15.98;;;;;;;1.41;100.00;98189.52;2018401;88;21539;-88
2022/01/20 02:36:41;;;;;;;30.55;17.77;;;;;;;1.41;100.00;98167.59;2009303;89;20993;-88
2022/01/20 02:40:01;;;;;;;25.95;16.57;;;;;;;1.42;100.00;98167.93;2009270;89;21123;-87
2022/01/20 02:46:04;;;;;;;30.27;17.23;;;;;;;1.43;100.00;98138.12;2009529;88;21584;-88
2022/01/20 02:49:05;;;;;;;37.58;19.17;;;;;;;1.42;100.00;98139.55;2009015;88;21024;-87
2022/01/20 02:52:06;;;;;;;61.10;30.97;;;;;;;1.41;100.00;98137.92;2009336;88;21049;-88
2022/01/20 02:55:07;;;;;;;38.75;20.32;;;;;;;1.41;100.00;98127.61;2009451;89;21024;-88
2022/01/20 02:58:07;;;;;;;34.65;19.20;;;;;;;1.37;100.00;98125.78;2009525;88;21116;-87
2022/01/20 03:01:08;;;;;;;25.68;17.05;;;;;;;1.33;100.00;98126.17;2009448;88;21038;-87
2022/01/20 03:04:10;;;;;;;27.77;16.85;;;;;;;1.31;100.00;98132.77;2023280;88;21005;-88
2022/01/20 03:07:11;;;;;;;25.62;17.60;;;;;;;1.27;100.00;98119.78;2025780;86;21429;-88
2022/01/20 03:10:12;;;;;;;34.88;18.70;;;;;;;1.27;100.00;98110.75;2025879;88;21008;-88
2022/01/20 03:13:13;;;;;;;25.10;16.40;;;;;;;1.28;100.00;98108.55;2018210;88;21068;-88
2022/01/20 03:16:13;;;;;;;26.05;17.25;;;;;;;1.26;100.00;98110.89;2009585;88;21013;-88
2022/01/20 03:19:15;;;;;;;29.27;17.82;;;;;;;1.28;100.00;98110.28;2009680;89;21049;-87
2022/01/20 03:22:15;;;;;;;23.47;15.90;;;;;;;1.29;100.00;98105.48;2009408;89;21001;-87
2022/01/20 03:25:16;;;;;;;26.52;15.80;;;;;;;1.28;100.00;98100.80;2009340;89;21441;-88
2022/01/20 03:28:17;;;;;;;33.85;20.70;;;;;;;1.30;100.00;98091.64;2009282;89;20988;-88
2022/01/20 03:31:18;;;;;;;54.73;30.25;;;;;;;1.32;100.00;98087.15;2009115;89;21100;-88
2022/01/20 03:34:21;;;;;;;34.23;18.27;;;;;;;1.31;100.00;98082.94;2071944;86;21040;-87
2022/01/20 03:37:21;;;;;;;32.98;19.45;;;;;;;1.31;100.00;98086.81;2071645;86;21519;-87
2022/01/20 03:40:23;;;;;;;32.45;18.50;;;;;;;1.31;100.00;98086.81;2075832;83;20993;-87
2022/01/20 03:43:24;;;;;;;32.17;17.12;;;;;;;1.30;100.00;98078.73;2072486;83;21019;-88
2022/01/20 03:46:25;;;;;;;30.65;17.92;;;;;;;1.34;100.00;98073.16;2067144;86;21046;-87
2022/01/20 03:49:30;;;;;;;26.95;17.17;;;;;;;1.34;100.00;98070.58;2066961;86;21055;-89
2022/01/20 03:52:28;;;;;;;26.97;15.83;;;;;;;1.36;100.00;98063.50;2070515;85;21035;-88
2022/01/20 03:55:29;;;;;;;23.77;15.60;;;;;;;1.35;100.00;98065.75;1996743;89;21599;-88
2022/01/20 03:58:29;;;;;;;29.30;16.73;;;;;;;1.33;100.00;98054.77;2013116;88;20997;-88
2022/01/20 04:01:30;;;;;;;27.82;13.83;;;;;;;1.31;100.00;98050.22;1999117;89;21555;-88
2022/01/20 04:04:31;;;;;;;32.80;15.75;;;;;;;1.29;100.00;98043.11;2006381;89;21113;-88
2022/01/20 04:07:32;;;;;;;45.05;18.65;;;;;;;1.27;100.00;98055.30;2006356;89;21544;-89
2022/01/20 04:10:33;;;;;;;35.00;17.87;;;;;;;1.28;100.00;98052.24;2006004;88;21020;-89
2022/01/20 04:13:34;;;;;;;42.50;20.25;;;;;;;1.27;100.00;98041.59;2006012;89;21077;-89
2022/01/20 04:16:37;;;;;;;44.77;23.32;;;;;;;1.27;100.00;98040.30;2005555;87;21090;-89
2022/01/20 04:19:38;;;;;;;37.85;20.72;;;;;;;1.27;100.00;98014.03;2005594;89;21068;-89
2022/01/20 04:22:38;;;;;;;40.20;19.17;;;;;;;1.25;100.00;98009.49;2023747;88;21607;-89
2022/01/20 04:25:39;;;;;;;42.05;18.45;;;;;;;1.26;100.00;98017.56;2038142;87;21072;-89
2022/01/20 04:28:40;;;;;;;29.48;17.15;;;;;;;1.27;100.00;98023.06;2038378;87;21552;-90
2022/01/20 04:31:41;;;;;;;31.20;17.55;;;;;;;1.28;100.00;98019.55;2040385;87;21060;-89
2022/01/20 04:34:43;;;;;;;35.10;17.85;;;;;;;1.27;100.00;98010.64;2041128;87;21045;-89
2022/01/20 04:37:44;;;;;;;31.70;14.68;;;;;;;1.30;100.00;98019.41;2035033;87;21093;-90
2022/01/20 04:40:45;;;;;;;28.05;15.75;;;;;;;1.28;100.00;98019.55;2023981;87;20996;-90
2022/01/20 04:43:46;;;;;;;25.37;16.00;;;;;;;1.31;100.00;98024.91;2031627;87;20964;-90
2022/01/20 04:46:57;;;;;;;27.37;15.00;;;;;;;1.32;100.00;98017.50;2034729;87;21552;-88
2022/01/20 04:59:49;;;;;;;22.60;13.35;;;;;;;1.37;100.00;98022.59;2035204;87;21028;-89
2022/01/20 05:02:50;;;;;;;20.12;13.53;;;;;;;1.39;100.00;98022.45;2032747;87;21531;-89
2022/01/20 05:05:51;;;;;;;22.42;14.05;;;;;;;1.42;100.00;98017.01;2018124;88;21021;-90
2022/01/20 05:08:52;;;;;;;21.90;12.90;;;;;;;1.43;100.00;98017.34;2018298;88;21024;-89
2022/01/20 05:12:12;;;;;;;19.50;12.90;;;;;;;1.45;100.00;98013.33;2020210;88;20976;-88
2022/01/20 05:15:11;;;;;;;24.02;17.60;;;;;;;1.44;100.00;98008.64;2021152;88;21032;-90
2022/01/20 05:18:11;;;;;;;26.12;13.80;;;;;;;1.43;100.00;98003.97;2011714;88;21056;-88
2022/01/20 05:21:12;;;;;;;19.42;12.35;;;;;;;1.39;100.00;98003.11;1998864;88;21092;-89
2022/01/20 05:24:13;;;;;;;23.80;13.65;;;;;;;1.39;100.00;98003.11;1998478;89;21088;-89
2022/01/20 05:27:14;;;;;;;17.42;11.55;;;;;;;1.43;100.00;98014.28;1998512;88;21596;-89
2022/01/20 05:30:15;;;;;;;19.50;12.68;;;;;;;1.44;100.00;98006.06;1998540;88;21065;-88
2022/01/20 05:33:15;;;;;;;17.82;11.80;;;;;;;1.45;100.00;98005.59;2014253;88;20954;-88
2022/01/20 05:36:16;;;;;;;16.67;11.50;;;;;;;1.45;100.00;98008.17;1989242;89;21018;-88
2022/01/20 05:39:17;;;;;;;19.00;11.63;;;;;;;1.50;100.00;98009.87;2022698;88;21524;-91
2022/01/20 05:42:18;;;;;;;14.93;10.85;;;;;;;1.50;100.00;98005.52;1983999;89;21033;-93
2022/01/20 05:45:18;;;;;;;22.07;12.20;;;;;;;1.48;100.00;98000.17;1989332;89;21620;-91
2022/01/20 05:48:31;;;;;;;14.63;10.63;;;;;;;1.48;100.00;98000.17;1989785;89;21065;-91
2022/01/20 05:51:22;;;;;;;19.65;10.75;;;;;;;1.48;100.00;97997.59;2003592;87;21077;-90
2022/01/20 05:54:23;;;;;;;24.70;12.60;;;;;;;1.47;100.00;98010.16;1985803;89;21053;-90
2022/01/20 05:57:23;;;;;;;13.80;9.93;;;;;;;1.47;100.00;97998.06;1995602;89;21113;-91
2022/01/20 06:00:25;;;;;;;15.25;10.25;;;;;;;1.46;100.00;98011.08;1995677;89;21028;-91
2022/01/20 06:03:38;;;;;;;13.38;9.43;;;;;;;1.46;100.00;98003.34;2013141;88;22141;-91
2022/01/20 06:06:39;;;;;;;12.95;10.10;;;;;;;1.45;100.00;98003.82;1985539;89;21110;-89
2022/01/20 06:09:40;;;;;;;14.23;10.13;;;;;;;1.49;100.00;98001.80;1996149;89;21017;-90
2022/01/20 06:12:41;;;;;;;15.65;10.05;;;;;;;1.47;100.00;98001.94;1995550;88;21651;-89
2022/01/20 06:15:41;;;;;;;13.90;10.85;;;;;;;1.48;100.00;98014.36;2014617;88;21042;-88
2022/01/20 06:18:42;;;;;;;13.53;10.98;;;;;;;1.48;100.00;98011.78;2015400;87;21089;-85
2022/01/20 06:21:45;;;;;;;14.63;9.78;;;;;;;1.48;100.00;98019.05;2007792;88;21050;-84
2022/01/20 06:24:46;;;;;;;13.32;9.73;;;;;;;1.45;100.00;98022.36;1953697;90;21041;-87
2022/01/20 06:27:46;;;;;;;10.05;8.43;;;;;;;1.42;100.00;98013.95;1951948;90;21045;-88
2022/01/20 06:30:47;;;;;;;13.95;8.73;;;;;;;1.42;100.00;98012.66;1979804;89;20973;-88
2022/01/20 06:33:48;;;;;;;11.43;9.20;;;;;;;1.46;100.00;98009.80;1995378;89;21481;-88
2022/01/20 06:36:49;;;;;;;13.72;9.03;;;;;;;1.42;100.00;97998.47;1985840;90;21121;-88
2022/01/20 06:39:50;;;;;;;9.28;8.05;;;;;;;1.46;100.00;97993.84;1989753;89;21037;-89
2022/01/20 06:42:50;;;;;;;10.38;9.23;;;;;;;1.49;100.00;97994.05;1989356;89;21068;-89
2022/01/20 06:45:51;;;;;;;13.55;9.30;;;;;;;1.48;100.00;97995.82;1988613;88;21030;-89
2022/01/20 06:48:52;;;;;;;13.70;9.75;;;;;;;1.51;100.00;97976.66;1990100;89;21053;-90
2022/01/20 06:51:53;;;;;;;11.35;9.03;;;;;;;1.54;100.00;97975.89;1997978;88;21549;-88
2022/01/20 06:54:53;;;;;;;12.80;9.28;;;;;;;1.60;100.00;97979.69;1998012;89;20990;-90
2022/01/20 06:57:54;;;;;;;9.43;8.53;;;;;;;1.61;100.00;97974.38;1997951;89;21029;-89
2022/01/20 07:00:55;;;;;;;11.43;8.80;;;;;;;1.66;100.00;97980.42;1998022;89;21524;-89
2022/01/20 07:03:56;;;;;;;16.60;9.33;;;;;;;1.68;100.00;97984.97;1998260;89;21035;-90
2022/01/20 07:06:57;;;;;;;8.93;7.70;;;;;;;1.72;100.00;97982.42;1998110;89;21526;-88
2022/01/20 07:09:57;;;;;;;9.98;7.80;;;;;;;1.76;100.00;97976.04;1998169;89;21077;-89
2022/01/20 07:12:58;;;;;;;11.57;7.95;;;;;;;1.81;100.00;97951.08;2020043;88;21009;-88
2022/01/20 07:15:59;;;;;;;12.33;8.63;;;;;;;1.81;100.00;97956.23;1983868;89;21105;-90
2022/01/20 07:19:00;;;;;;;11.35;7.55;;;;;;;1.86;100.00;97973.42;1989126;89;21029;-87
2022/01/20 07:22:01;;;;;;;9.28;7.40;;;;;;;1.85;100.00;97980.83;1988971;89;21136;-87
2022/01/20 07:25:01;;;;;;;9.80;6.85;;;;;;;1.81;100.00;97971.73;1989639;88;20998;-86
2022/01/20 07:28:02;;;;;;;10.00;7.53;;;;;;;1.81;100.00;97973.83;1996725;88;21016;-85
2022/01/20 07:31:03;;;;;;;11.20;6.90;;;;;;;1.81;100.00;97987.22;1997793;89;21061;-88
2022/01/20 07:34:04;;;;;;;10.50;7.55;;;;;;;1.84;100.00;97985.66;1997819;89;20974;-88
2022/01/20 07:37:05;;;;;;;17.87;11.33;;;;;;;1.83;100.00;97990.02;1998502;88;20970;-88
2022/01/20 07:40:06;;;;;;;8.78;7.03;;;;;;;1.79;100.00;98016.23;1998539;89;21077;-89
2022/01/20 07:43:07;;;;;;;10.35;5.55;;;;;;;1.63;100.00;98011.18;1998395;89;21089;-86
2022/01/20 07:46:08;;;;;;;9.68;5.22;;;;;;;1.39;100.00;97984.57;1999392;88;21044;-87
2022/01/20 07:49:08;;;;;;;6.72;5.42;;;;;;;1.23;100.00;97993.83;1999210;89;21004;-88
2022/01/20 07:52:10;;;;;;;5.42;4.22;;;;;;;1.16;100.00;98006.93;1998706;88;21500;-85
2022/01/20 07:55:11;;;;;;;5.87;4.03;;;;;;;1.07;100.00;98009.38;1998162;89;21029;-84
2022/01/20 07:58:12;;;;;;;2.77;2.58;;;;;;;1.00;100.00;98017.30;1998516;89;21095;-85
2022/01/20 08:01:13;;;;;;;7.00;3.40;;;;;;;0.93;100.00;98028.33;1998344;88;21097;-87
2022/01/20 08:04:13;;;;;;;5.28;3.10;;;;;;;0.84;100.00;98023.50;1997866;89;21085;-88
2022/01/20 08:07:14;;;;;;;6.92;3.58;;;;;;;0.79;100.00;98020.02;1998065;88;21048;-90
2022/01/20 08:10:15;;;;;;;3.75;3.20;;;;;;;0.77;100.00;98027.08;1998060;89;21062;-89
2022/01/20 08:13:16;;;;;;;2.90;2.65;;;;;;;0.74;100.00;98011.90;1998101;89;21358;-88
2022/01/20 08:16:17;;;;;;;4.35;3.35;;;;;;;0.74;100.00;98027.36;1998393;89;21045;-84
2022/01/20 08:19:17;;;;;;;4.92;3.95;;;;;;;0.72;100.00;98033.10;2021790;87;20997;-85
2022/01/20 08:22:18;;;;;;;6.85;3.60;;;;;;;0.84;100.00;98036.39;2038489;87;21139;-86
2022/01/20 08:25:19;;;;;;;5.97;3.60;;;;;;;0.90;100.00;98016.50;2038545;87;21053;-90
2022/01/20 08:28:22;;;;;;;5.15;3.87;;;;;;;0.93;100.00;98019.30;2027844;87;20960;-84
2022/01/20 08:31:22;;;;;;;2.17;1.75;;;;;;;0.95;100.00;98015.62;2007444;87;21104;-81
2022/01/20 08:34:23;;;;;;;3.55;2.00;;;;;;;0.99;100.00;97997.64;2002366;89;20953;-82
2022/01/20 08:37:25;;;;;;;4.60;2.20;;;;;;;1.04;100.00;97992.09;2002326;89;21100;-83
2022/01/20 08:40:26;;;;;;;6.30;4.17;;;;;;;1.07;100.00;97977.14;2002318;89;21024;-84
2022/01/20 08:43:27;;;;;;;77.22;37.88;;;;;;;1.16;100.00;97965.19;2004451;87;21015;-84
2022/01/20 08:46:27;;;;;;;39.10;15.78;;;;;;;1.25;100.00;97958.39;2016036;87;21032;-85
2022/01/20 08:49:28;;;;;;;20.95;8.68;;;;;;;1.41;100.00;97950.89;2080981;85;20952;-84
2022/01/20 08:52:29;;;;;;;12.03;4.70;;;;;;;1.52;100.00;97948.61;2039222;87;21022;-89
2022/01/20 08:55:30;;;;;;;10.05;4.08;;;;;;;1.68;100.00;97954.80;2038714;87;21046;-85
2022/01/20 08:58:30;;;;;;;10.18;5.33;;;;;;;1.81;100.00;97953.17;2038676;87;21052;-84
2022/01/20 09:01:31;;;;;;;10.80;3.70;;;;;;;1.90;100.00;97951.03;2040990;86;20989;-83
2022/01/20 09:04:32;;;;;;;11.43;4.05;;;;;;;2.04;100.00;97947.17;2039356;86;21043;-84
2022/01/20 09:07:33;;;;;;;12.58;3.77;;;;;;;2.25;100.00;97936.09;2038267;87;21037;-84
2022/01/20 09:10:38;;;;;;;8.83;4.25;;;;;;;2.54;100.00;97935.88;2038176;86;21057;-83
2022/01/20 09:16:56;;;;;;;14.00;5.55;;;;;;;2.98;100.00;97923.00;2026091;86;21092;-85
2022/01/20 09:19:56;;;;;;;14.58;7.03;;;;;;;3.09;100.00;97920.16;2038516;87;21570;-88
2022/01/20 09:22:58;;;;;;;12.80;5.03;;;;;;;3.06;100.00;97908.84;2038491;87;21004;-83
2022/01/20 09:25:59;;;;;;;12.65;4.65;;;;;;;2.93;100.00;97892.92;2038286;87;21121;-86
2022/01/20 09:29:00;;;;;;;13.15;4.90;;;;;;;2.81;100.00;97896.20;2038527;87;21092;-85
2022/01/20 09:32:04;;;;;;;9.35;4.33;;;;;;;2.88;100.00;97895.62;2038326;86;20997;-84
2022/01/20 09:35:03;;;;;;;9.18;4.00;;;;;;;2.93;100.00;97897.28;2034771;87;21072;-83
2022/01/20 09:38:04;;;;;;;10.18;3.62;;;;;;;2.96;100.00;97895.19;2035511;87;21044;-84
2022/01/20 09:41:05;;;;;;;8.45;4.12;;;;;;;3.03;100.00;97875.53;2036522;87;21041;-84
2022/01/20 09:44:06;;;;;;;7.47;3.05;;;;;;;3.07;100.00;97870.37;2038458;87;21622;-83
2022/01/20 09:47:07;;;;;;;7.10;3.12;;;;;;;3.09;100.00;97873.60;2038426;86;20972;-84
2022/01/20 09:50:08;;;;;;;7.15;2.60;;;;;;;3.05;100.00;97861.14;2038480;86;21032;-83
2022/01/20 09:53:08;;;;;;;7.22;3.60;;;;;;;3.11;100.00;97848.42;2038664;87;21089;-81
2022/01/20 09:56:09;;;;;;;9.93;3.05;;;;;;;3.14;100.00;97843.41;2038464;87;20996;-81
2022/01/20 09:59:10;;;;;;;9.35;3.35;;;;;;;3.26;100.00;97843.95;2038172;87;21012;-81
2022/01/20 10:02:17;;;;;;;16.30;7.53;;;;;;;3.28;100.00;97833.77;2038307;87;20988;-82
2022/01/20 10:05:14;;;;;;;12.28;6.30;;;;;;;3.36;100.00;97832.52;2037481;87;21550;-82
2022/01/20 10:08:14;;;;;;;8.23;5.33;;;;;;;3.43;100.00;97826.23;2038301;86;21019;-83
2022/01/20 10:11:15;;;;;;;10.08;5.55;;;;;;;3.47;100.00;97828.83;2038444;87;21048;-83
2022/01/20 10:14:16;;;;;;;9.23;2.95;;;;;;;3.47;100.00;97808.61;2038478;87;21043;-82
2022/01/20 10:17:17;;;;;;;6.35;3.55;;;;;;;3.40;100.00;97817.50;2038270;87;20984;-82
2022/01/20 10:20:18;;;;;;;7.95;2.60;;;;;;;3.33;100.00;97803.56;2010433;87;21144;-82
2022/01/20 10:23:19;;;;;;;6.45;2.77;;;;;;;3.25;100.00;97797.86;2004240;88;21048;-83
2022/01/20 10:26:19;;;;;;;8.13;3.10;;;;;;;3.22;100.00;97799.96;1989415;89;21023;-83
2022/01/20 10:29:20;;;;;;;8.20;3.50;;;;;;;3.19;100.00;97797.66;1969363;89;21030;-86
2022/01/20 10:32:21;;;;;;;5.17;2.10;;;;;;;3.18;100.00;97788.28;1997937;89;21002;-82
2022/01/20 10:35:22;;;;;;;7.00;2.92;;;;;;;3.14;100.00;97798.95;2009708;88;21012;-84
2022/01/20 10:38:23;;;;;;;4.25;1.30;;;;;;;2.81;100.00;97834.64;1989199;90;21104;-81
2022/01/20 10:41:24;;;;;;;1.10;1.00;;;;;;;2.28;100.00;97845.38;1989106;90;20970;-84
2022/01/20 10:44:24;;;;;;;7.75;1.72;;;;;;;1.89;100.00;97850.02;1989156;89;21048;-83
2022/01/20 10:47:25;;;;;;;2.60;1.20;;;;;;;1.59;100.00;97851.14;1989462;89;20989;-83
2022/01/20 10:50:27;;;;;;;2.95;1.10;;;;;;;1.39;100.00;97863.33;1998015;89;21536;-84
2022/01/20 10:53:28;;;;;;;1.27;1.17;;;;;;;1.24;100.00;97859.58;2002460;88;21049;-83
2022/01/20 10:56:29;;;;;;;1.67;1.15;;;;;;;1.18;100.00;97846.42;1997896;89;21017;-81
2022/01/20 10:59:29;;;;;;;5.70;3.12;;;;;;;1.01;100.00;97874.59;1997978;89;20973;-84
2022/01/20 11:02:31;;;;;;;7.10;4.00;;;;;;;0.83;100.00;97893.82;1997916;89;21080;-84
2022/01/20 11:05:33;;;;;;;10.32;6.30;;;;;;;0.44;100.00;97899.45;1997902;89;21068;-84
2022/01/20 11:08:38;;;;;;;14.15;7.47;;;;;;;0.16;100.00;97901.54;1997702;89;21132;-84
2022/01/20 11:11:38;;;;;;;9.68;5.08;;;;;;;-0.06;100.00;97907.27;1997773;89;21085;-84
2022/01/20 11:14:39;;;;;;;7.78;3.90;;;;;;;-0.19;100.00;97897.67;1998309;88;21081;-87
2022/01/20 11:17:42;;;;;;;17.42;7.22;;;;;;;-0.32;100.00;97926.22;1998009;88;21073;-84
2022/01/20 11:20:43;;;;;;;71.07;26.33;;;;;;;-0.40;100.00;97923.95;2028673;87;21109;-85
2022/01/20 11:23:44;;;;;;;13.68;6.92;;;;;;;-0.41;100.00;97918.00;2038307;87;21163;-81
2022/01/20 11:26:45;;;;;;;12.03;5.65;;;;;;;-0.37;100.00;97921.92;2038081;86;21532;-83
2022/01/20 11:29:46;;;;;;;13.43;6.95;;;;;;;-0.24;100.00;97924.77;2040315;87;21024;-85
2022/01/20 11:32:46;;;;;;;10.08;5.35;;;;;;;-0.13;100.00;97914.36;2040514;87;21610;-81
2022/01/20 11:35:47;;;;;;;9.98;4.65;;;;;;;-0.01;100.00;97912.82;2040029;86;20987;-81
2022/01/20 11:38:50;;;;;;;16.48;7.03;;;;;;;-0.06;100.00;97896.97;2100056;84;21490;-83
2022/01/20 11:41:52;;;;;;;30.05;10.85;;;;;;;-0.14;100.00;97903.25;2089574;85;20979;-84
2022/01/20 11:44:53;;;;;;;10.08;4.72;;;;;;;0.05;100.00;97882.36;2081954;85;21106;-85
2022/01/20 11:47:54;;;;;;;40.70;14.70;;;;;;;0.16;100.00;97897.20;2038200;87;21088;-85
2022/01/20 11:50:55;;;;;;;13.83;4.92;;;;;;;0.20;100.00;97888.75;2038460;86;21080;-84
2022/01/20 11:53:55;;;;;;;8.08;4.05;;;;;;;0.25;100.00;97897.69;2038213;86;20988;-85
2022/01/20 11:56:56;;;;;;;25.62;8.53;;;;;;;0.30;100.00;97887.47;2038264;87;21623;-85
2022/01/20 11:59:59;;;;;;;10.72;4.70;;;;;;;0.77;100.00;97898.23;2038410;86;20993;-86
2022/01/20 12:03:00;;;;;;;5.33;2.92;;;;;;;0.78;100.00;97895.98;2038553;87;21051;-90
2022/01/20 12:06:01;;;;;;;6.97;2.72;;;;;;;0.51;100.00;97901.83;2038390;87;21061;-87
2022/01/20 12:09:02;;;;;;;4.62;3.27;;;;;;;0.29;100.00;97873.78;2038229;87;21526;-85
2022/01/20 12:12:03;;;;;;;3.33;2.30;;;;;;;0.28;100.00;97886.33;2037963;87;21103;-86
2022/01/20 12:15:04;;;;;;;3.00;2.27;;;;;;;0.24;100.00;97884.95;2038294;87;21016;-86
2022/01/20 12:18:05;;;;;;;7.37;3.17;;;;;;;0.29;100.00;97880.22;2038194;87;21583;-86
2022/01/20 12:21:08;;;;;;;2.65;2.10;;;;;;;0.37;100.00;97889.37;2038275;86;21137;-86
2022/01/20 12:24:08;;;;;;;5.30;2.05;;;;;;;0.39;100.00;97907.27;2038136;87;21563;-87
2022/01/20 12:27:09;;;;;;;4.35;1.90;;;;;;;0.41;100.00;97922.91;2038471;87;21040;-86
2022/01/20 12:30:10;;;;;;;5.05;2.35;;;;;;;0.44;100.00;97902.03;2038442;87;21100;-87
2022/01/20 12:33:13;;;;;;;3.30;2.37;;;;;;;0.41;100.00;97913.90;2038437;87;21075;-86
2022/01/20 12:36:13;;;;;;;6.75;3.08;;;;;;;0.40;100.00;97900.69;2038087;87;21070;-89
2022/01/20 12:39:14;;;;;;;4.53;2.60;;;;;;;0.45;100.00;97916.53;2018965;86;21591;-89
2022/01/20 12:42:15;;;;;;;6.42;4.15;;;;;;;0.44;100.00;97917.48;2039842;86;21576;-85
2022/01/20 12:48:35;;;;;;;9.60;5.78;;;;;;;0.06;100.00;97908.44;2037621;86;21047;-89
2022/01/20 12:51:36;;;;;;;7.60;4.40;;;;;;;0.05;100.00;97920.97;2034985;87;22064;-88
2022/01/20 12:54:37;;;;;;;8.78;4.53;;;;;;;0.01;100.00;97932.48;2081985;85;20991;-89
2022/01/20 12:57:37;;;;;;;6.15;4.37;;;;;;;-0.02;100.00;97936.12;2004250;88;20976;-85
2022/01/20 13:00:38;;;;;;;9.18;4.83;;;;;;;-0.01;100.00;97950.14;2004202;89;21084;-85
2022/01/20 13:03:39;;;;;;;7.22;4.03;;;;;;;0.02;100.00;97954.70;2018096;88;20981;-86
2022/01/20 13:06:40;;;;;;;6.00;3.72;;;;;;;-0.01;100.00;97954.47;2018190;88;20977;-87
2022/01/20 14:02:17;;;;;;;8.88;4.12;;;;;;;-0.72;100.00;98011.51;2382241;74;23388;-91
2022/01/20 14:05:18;;;;;;;5.58;2.80;;;;;;;-0.89;100.00;98014.16;2357733;75;21029;-81
2022/01/20 14:08:19;;;;;;;8.05;4.75;;;;;;;-0.97;100.00;98013.97;2359368;75;20934;-82
2022/01/20 14:11:20;;;;;;;7.17;3.55;;;;;;;-0.98;100.00;98032.90;2344223;75;21567;-83
2022/01/20 14:14:21;;;;;;;10.15;3.55;;;;;;;-0.94;100.00;98031.70;2313820;75;21057;-83
2022/01/20 14:17:21;;;;;;;8.05;4.33;;;;;;;-0.91;100.00;98045.14;2319492;75;20933;-83
2022/01/20 14:20:23;;;;;;;8.23;3.77;;;;;;;-0.89;100.00;98039.39;2315343;77;21064;-83
2022/01/20 14:23:24;;;;;;;8.20;4.22;;;;;;;-0.88;100.00;98027.36;2315345;75;21484;-81
2022/01/20 14:26:29;;;;;;;5.83;3.27;;;;;;;-0.88;100.00;98038.45;2314989;75;20968;-83
2022/01/20 14:29:27;;;;;;;9.38;3.50;;;;;;;-0.87;100.00;98022.09;2314696;77;21033;-84
2022/01/20 14:32:28;;;;;;;7.25;3.33;;;;;;;-0.85;100.00;98033.52;2315424;75;20969;-81
2022/01/20 14:35:31;;;;;;;7.40;2.62;;;;;;;-0.83;100.00;98021.83;2322645;75;21416;-82
2022/01/20 14:38:34;;;;;;;6.08;3.12;;;;;;;-0.82;100.00;98024.30;2321660;76;21064;-82
2022/01/20 14:41:34;;;;;;;8.33;3.22;;;;;;;-0.82;100.00;98032.02;2327777;75;20964;-82
2022/01/20 14:44:36;;;;;;;6.30;2.83;;;;;;;-0.81;100.00;98019.50;2343570;75;20998;-81
2022/01/20 14:47:36;;;;;;;5.67;2.52;;;;;;;-0.82;100.00;98026.03;2331860;76;20980;-80
2022/01/20 14:50:37;;;;;;;7.85;2.90;;;;;;;-0.85;100.00;98037.38;2344038;76;20922;-81
2022/01/20 14:53:38;;;;;;;7.67;2.75;;;;;;;-0.86;100.00;98038.33;2315270;76;21070;-81
2022/01/20 14:56:39;;;;;;;6.55;2.20;;;;;;;-0.90;100.00;98018.97;2343973;75;20976;-84
2022/01/20 14:59:40;;;;;;;10.03;2.50;;;;;;;-0.92;100.00;98032.38;2313482;77;21004;-82
2022/01/20 15:02:45;;;;;;;5.22;2.30;;;;;;;-0.96;100.00;98022.02;2356285;75;20993;-80
2022/01/20 15:05:45;;;;;;;6.95;2.85;;;;;;;-0.99;100.00;98034.66;2319563;75;20945;-80
2022/01/20 15:08:46;;;;;;;5.40;2.60;;;;;;;-0.97;100.00;98028.10;2316127;77;20991;-80
2022/01/20 15:11:47;;;;;;;6.08;3.20;;;;;;;-0.94;100.00;98034.27;2346912;75;21004;-79
2022/01/20 15:14:47;;;;;;;5.22;3.62;;;;;;;-0.95;100.00;98028.78;2358573;75;20959;-80
2022/01/20 15:17:48;;;;;;;10.03;3.35;;;;;;;-0.94;100.00;98021.42;2318330;75;21036;-80
2022/01/20 15:20:49;;;;;;;8.60;2.95;;;;;;;-0.90;100.00;98024.10;2314791;77;20977;-79
2022/01/20 15:23:50;;;;;;;5.00;2.90;;;;;;;-0.86;100.00;98019.05;2314556;77;21048;-79
2022/01/20 15:26:51;;;;;;;5.08;2.15;;;;;;;-0.84;100.00;98031.30;2314719;77;20981;-80
2022/01/20 15:29:52;;;;;;;5.42;3.00;;;;;;;-0.83;100.00;98036.78;2352071;75;20938;-79
2022/01/20 15:32:53;;;;;;;3.75;2.37;;;;;;;-0.80;100.00;98042.16;2358188;75;21025;-84
2022/01/20 15:35:53;;;;;;;8.58;3.40;;;;;;;-0.78;100.00;98045.42;2330587;75;20983;-87
2022/01/20 15:38:54;;;;;;;4.35;2.50;;;;;;;-0.76;100.00;98057.67;2313927;75;20998;-85
2022/01/20 15:41:55;;;;;;;5.65;3.22;;;;;;;-0.74;100.00;98055.31;2313107;77;21027;-83
2022/01/20 15:44:56;;;;;;;5.12;3.25;;;;;;;-0.74;100.00;98052.74;2309803;75;20943;-83
2022/01/20 15:47:57;;;;;;;6.80;2.87;;;;;;;-0.75;100.00;98053.69;2338259;75;21608;-80
2022/01/20 15:50:57;;;;;;;7.25;3.37;;;;;;;-0.76;100.00;98040.97;2308543;75;20951;-80
2022/01/20 15:53:58;;;;;;;5.55;3.37;;;;;;;-0.78;100.00;98051.38;2358026;75;21558;-81
2022/01/20 15:56:59;;;;;;;8.53;3.80;;;;;;;-0.77;100.00;98063.76;2335414;75;21022;-81
2022/01/20 16:00:00;;;;;;;9.13;5.15;;;;;;;-0.79;100.00;98042.03;2305480;77;21003;-83